Time;durP1;ratioP1;P1;durP2;ratioP2;P2;SDS_P1;SDS_P2;PMS_P1;PMS_P2;Temp;Humidity;BMP_temperature;BMP_pressure;BME280_temperature;BME280_humidity;BME280_pressure;Samples;Min_cycle;Max_cycle;Signal;HPM_P1;HPM_P2
2022/12/19 00:01:30;;;;;;;6.50;4.00;;;-1.10;99.90;;;-1.12;nan;101702.50;5030030;28;20233;-63
2022/12/19 00:04:01;;;;;;;17.58;7.95;;;-1.10;99.90;;;-1.04;nan;101699.03;5029843;28;20711;-65
2022/12/19 00:06:29;;;;;;;7.05;4.72;;;-1.10;99.90;;;-1.07;nan;101704.19;5033441;28;20214;-64
2022/12/19 00:08:59;;;;;;;15.15;8.05;;;-1.00;99.90;;;-1.09;nan;101695.66;5032942;28;20207;-64
2022/12/19 00:11:27;;;;;;;14.32;8.02;;;-1.00;99.90;;;-1.09;nan;101697.38;5033346;28;20230;-64
2022/12/19 00:13:55;;;;;;;14.20;6.90;;;-1.00;99.90;;;-1.06;nan;101698.19;5029678;28;20253;-64
2022/12/19 00:16:25;;;;;;;11.52;7.38;;;-1.00;99.90;;;-0.95;nan;101688.72;5031617;28;20231;-64
2022/12/19 00:18:55;;;;;;;16.73;8.20;;;-1.00;99.90;;;-0.90;nan;101678.44;5013789;28;20207;-61
2022/12/19 00:21:26;;;;;;;15.00;8.30;;;-0.90;99.90;;;-0.91;nan;101674.16;5032913;28;20223;-64
2022/12/19 00:23:54;;;;;;;14.85;8.25;;;-0.90;99.90;;;-0.89;nan;101677.56;5020031;28;20205;-64
2022/12/19 00:26:27;;;;;;;15.95;7.50;;;-0.90;99.90;;;-0.90;nan;101675.88;5034093;28;20207;-64
2022/12/19 00:28:57;;;;;;;12.82;7.10;;;-0.90;99.90;;;-0.97;nan;101674.22;5032574;28;20209;-65
2022/12/19 00:31:28;;;;;;;19.85;8.85;;;-0.90;99.90;;;-0.85;nan;101680.09;5033587;28;20767;-64
2022/12/19 00:33:55;;;;;;;20.25;9.02;;;-0.80;99.90;;;-0.80;nan;101682.59;5032321;28;20655;-64
2022/12/19 00:36:25;;;;;;;18.17;8.40;;;-0.80;99.90;;;-0.72;nan;101673.13;5033775;28;20232;-65
2022/12/19 00:38:56;;;;;;;18.38;9.00;;;-0.80;99.90;;;-0.68;nan;101668.84;5015118;28;20205;-64
2022/12/19 00:41:28;;;;;;;11.05;7.15;;;-0.70;99.90;;;-0.64;nan;101666.25;5031684;28;20227;-64
2022/12/19 00:43:58;;;;;;;18.00;8.45;;;-0.60;99.90;;;-0.66;nan;101660.25;5031457;28;20203;-64
2022/12/19 00:46:27;;;;;;;13.35;8.32;;;-0.60;99.90;;;-0.65;nan;101651.72;5033013;28;20263;-64
2022/12/19 00:48:54;;;;;;;15.85;8.05;;;-0.60;99.90;;;-0.63;nan;101655.09;5031595;28;20215;-64
2022/12/19 00:51:25;;;;;;;13.63;7.78;;;-0.60;99.90;;;-0.59;nan;101649.09;5031544;28;20244;-64
2022/12/19 00:53:54;;;;;;;19.60;10.07;;;-0.60;99.90;;;-0.52;nan;101648.16;5032606;28;20261;-64
2022/12/19 00:56:25;;;;;;;18.73;9.77;;;-0.60;99.90;;;-0.47;nan;101648.94;5032449;28;20231;-64
2022/12/19 00:58:53;;;;;;;17.20;8.85;;;-0.50;99.90;;;-0.55;nan;101650.75;5033168;28;20200;-63
2022/12/19 01:01:30;;;;;;;20.25;10.13;;;-0.50;99.90;;;-0.51;nan;101654.97;5015778;28;20228;-64
2022/12/19 01:03:58;;;;;;;15.80;7.72;;;-0.50;99.90;;;-0.48;nan;101649.81;5032703;28;20196;-64
2022/12/19 01:06:45;;;;;;;20.48;8.52;;;-0.50;99.90;;;-0.48;nan;101639.56;5033342;28;20269;-64
2022/12/19 01:09:12;;;;;;;20.13;8.93;;;-0.40;99.90;;;-0.39;nan;101642.03;5032697;28;20207;-63
2022/12/19 01:14:24;;;;;;;18.23;9.68;;;-0.40;99.90;;;-0.32;nan;101655.66;5033070;28;20581;-63
2022/12/19 01:16:51;;;;;;;15.65;8.68;;;-0.40;99.90;;;-0.33;nan;101652.22;5020191;28;20229;-64
2022/12/19 01:19:19;;;;;;;8.75;7.10;;;-0.30;99.90;;;-0.30;nan;101657.31;5028883;28;20577;-64
2022/12/19 01:21:46;;;;;;;13.85;7.10;;;-0.30;99.90;;;-0.28;nan;101647.88;5032298;28;20228;-61
2022/12/19 01:24:13;;;;;;;12.27;7.32;;;-0.30;99.90;;;-0.22;nan;101652.97;5031112;28;20214;-64
2022/12/19 01:26:45;;;;;;;18.80;8.27;;;-0.30;99.90;;;-0.25;nan;101655.53;5032596;28;20196;-64
2022/12/19 01:29:12;;;;;;;14.25;7.65;;;-0.20;99.90;;;-0.19;nan;101650.34;5031506;28;20215;-64
2022/12/19 01:31:39;;;;;;;9.15;5.07;;;-0.20;99.90;;;-0.20;nan;101651.22;5029539;28;20229;-63
2022/12/19 01:34:06;;;;;;;8.55;6.45;;;-0.20;99.90;;;-0.13;nan;101654.56;5031173;28;20268;-63
2022/12/19 01:36:34;;;;;;;13.43;7.35;;;-0.10;99.90;;;-0.13;nan;101644.31;5032189;28;20229;-62
2022/12/19 01:39:04;;;;;;;8.98;6.10;;;-0.10;99.90;;;-0.22;nan;101644.41;5032469;28;20261;-64
2022/12/19 01:41:31;;;;;;;8.00;5.07;;;-0.10;99.90;;;-0.11;nan;101640.81;5031765;28;20232;-64
2022/12/19 01:44:03;;;;;;;3.47;2.70;;;-0.10;99.90;;;0.00;nan;101643.28;5030258;28;20215;-64
2022/12/19 01:46:47;;;;;;;6.75;2.97;;;-0.10;99.90;;;0.07;nan;101634.63;5030658;28;20596;-64
2022/12/19 01:49:30;;;;;;;7.63;4.00;;;0.00;99.90;;;0.03;nan;101632.97;5013303;28;20633;-64
2022/12/19 01:52:04;;;;;;;11.63;6.13;;;0.00;99.90;;;-0.05;nan;101634.78;5030948;28;20249;-63
2022/12/19 01:54:37;;;;;;;15.23;8.88;;;0.00;99.90;;;-0.04;nan;101637.31;5028152;28;20213;-64
2022/12/19 01:57:11;;;;;;;6.53;5.88;;;-0.10;99.90;;;-0.02;nan;101632.16;5013766;28;20237;-63
2022/12/19 01:59:45;;;;;;;11.05;5.93;;;-0.10;99.90;;;-0.13;nan;101627.16;5021087;28;20613;-64
2022/12/19 02:02:44;;;;;;;6.60;4.82;;;-0.10;99.90;;;-0.07;nan;101627.13;4995514;28;20232;-63
2022/12/19 02:05:11;;;;;;;6.70;4.85;;;-0.10;99.90;;;-0.02;nan;101624.47;5007778;28;20208;-63
2022/12/19 02:07:40;;;;;;;11.18;5.85;;;-0.10;99.90;;;-0.02;nan;101620.19;5032018;28;20210;-63
2022/12/19 02:10:07;;;;;;;8.38;5.60;;;0.00;99.90;;;-0.02;nan;101624.47;5029791;28;20209;-63
2022/12/19 02:12:39;;;;;;;8.77;5.68;;;0.00;99.90;;;-0.02;nan;101630.44;5026340;28;20277;-64
2022/12/19 02:15:08;;;;;;;6.72;4.95;;;0.00;99.90;;;0.04;nan;101623.56;5017939;28;20742;-63
2022/12/19 02:18:02;;;;;;;11.52;6.78;;;0.00;99.90;;;0.04;nan;101624.41;5025000;28;20230;-63
2022/12/19 02:21:12;;;;;;;13.07;6.85;;;0.00;99.90;;;0.04;nan;101619.28;5028067;28;20693;-64
2022/12/19 02:24:19;;;;;;;4.55;3.20;;;0.00;99.90;;;0.10;nan;101615.78;5028734;28;20203;-63
2022/12/19 02:26:57;;;;;;;9.02;4.32;;;0.00;99.90;;;0.11;nan;101605.47;5013958;28;20584;-64
2022/12/19 02:29:58;;;;;;;4.85;3.80;;;0.00;99.90;;;0.18;nan;101601.97;5030834;28;20214;-63
2022/12/19 02:32:33;;;;;;;12.70;5.65;;;0.10;99.90;;;0.05;nan;101604.72;5014262;28;20258;-64
2022/12/19 02:35:30;;;;;;;7.70;4.97;;;0.10;99.90;;;0.13;nan;101608.03;5013293;28;20218;-63
2022/12/19 02:38:11;;;;;;;8.10;5.88;;;0.10;99.90;;;0.11;nan;101622.63;5031663;28;20207;-63
2022/12/19 02:40:46;;;;;;;5.85;4.97;;;0.10;99.90;;;0.07;nan;101621.78;5025411;28;20201;-65
2022/12/19 02:43:16;;;;;;;4.43;3.30;;;0.10;99.90;;;0.12;nan;101619.16;5001271;28;20280;-64
2022/12/19 02:45:45;;;;;;;3.97;3.50;;;0.10;99.90;;;0.16;nan;101597.72;5028119;28;20223;-64
2022/12/19 02:48:13;;;;;;;8.90;5.70;;;0.10;99.90;;;0.14;nan;101600.31;5012737;28;20207;-64
2022/12/19 02:50:46;;;;;;;4.93;3.53;;;0.10;99.90;;;0.18;nan;101596.84;5013410;28;20234;-64
2022/12/19 02:53:16;;;;;;;6.57;3.58;;;0.10;99.90;;;0.17;nan;101602.00;5030583;28;20727;-64
2022/12/19 02:56:34;;;;;;;9.25;5.30;;;0.10;99.90;;;0.16;nan;101610.56;5028679;28;20220;-63
2022/12/19 02:59:39;;;;;;;13.90;7.55;;;0.20;99.90;;;0.12;nan;101607.19;5011408;28;20258;-64
2022/12/19 03:02:28;;;;;;;12.45;5.78;;;0.20;99.90;;;0.23;nan;101604.47;5020339;28;20220;-64
2022/12/19 03:05:21;;;;;;;5.05;4.20;;;0.20;99.90;;;0.24;nan;101607.00;5012672;28;20606;-65
2022/12/19 03:08:07;;;;;;;3.88;3.00;;;0.20;99.90;;;-0.06;nan;101602.28;5014276;28;20207;-63
2022/12/19 03:10:40;;;;;;;3.72;1.73;;;0.20;99.90;;;-0.27;nan;101600.00;5026059;28;20235;-63
2022/12/19 03:13:53;;;;;;;8.10;3.92;;;0.00;99.90;;;-0.03;nan;101610.81;5029777;28;20237;-64
2022/12/19 03:16:20;;;;;;;1.23;1.13;;;0.00;99.90;;;-0.07;nan;101596.34;4993447;28;20233;-64
2022/12/19 03:18:48;;;;;;;1.10;0.75;;;0.00;99.90;;;-0.06;nan;101598.00;5022307;28;20210;-64
2022/12/19 03:21:36;;;;;;;9.85;2.30;;;0.00;99.90;;;-0.07;nan;101596.34;5013636;28;20216;-64
2022/12/19 03:24:04;;;;;;;2.30;1.30;;;0.10;99.90;;;-0.56;nan;101592.66;5030454;28;20238;-64
2022/12/19 03:26:37;;;;;;;10.20;4.20;;;-0.10;99.90;;;-0.18;nan;101603.31;5012611;28;20208;-64
2022/12/19 03:29:15;;;;;;;3.80;2.08;;;-0.10;99.90;;;-0.23;nan;101599.94;5011832;28;20208;-64
2022/12/19 03:31:43;;;;;;;5.95;2.25;;;-0.10;99.90;;;-0.20;nan;101589.66;5010784;28;20703;-64
2022/12/19 03:34:25;;;;;;;3.05;1.45;;;0.00;99.90;;;-0.30;nan;101597.50;5011535;28;20207;-64
2022/12/19 03:36:56;;;;;;;5.22;3.15;;;-0.10;99.90;;;-0.20;nan;101599.91;5005021;28;20224;-64
2022/12/19 03:39:25;;;;;;;2.47;2.25;;;0.00;99.90;;;-0.15;nan;101593.00;5021233;28;20204;-64
2022/12/19 03:44:42;;;;;;;1.65;0.90;;;0.00;99.90;;;0.04;nan;101601.31;5033033;28;20203;-64
2022/12/19 03:47:20;;;;;;;1.52;1.30;;;0.10;99.90;;;-0.09;nan;101592.09;5033076;28;20210;-64
2022/12/19 03:49:47;;;;;;;2.00;1.77;;;0.10;99.90;;;-0.02;nan;101593.69;5031560;28;20671;-63
2022/12/19 03:52:28;;;;;;;10.55;4.35;;;0.10;99.90;;;-0.15;nan;101603.25;5033147;28;20300;-64
2022/12/19 03:55:09;;;;;;;5.72;3.30;;;0.10;99.90;;;-0.11;nan;101594.66;5033060;28;20266;-64
2022/12/19 03:57:45;;;;;;;7.30;3.45;;;0.10;99.90;;;0.00;nan;101592.78;5015395;28;20734;-64
2022/12/19 04:00:15;;;;;;;4.90;2.53;;;0.10;99.90;;;0.03;nan;101591.91;5015152;28;20208;-64
2022/12/19 04:02:46;;;;;;;1.75;1.65;;;0.10;99.90;;;0.12;nan;101593.50;5019678;28;20229;-64
2022/12/19 04:05:23;;;;;;;0.65;0.65;;;0.10;99.90;;;-0.28;nan;101580.38;5014935;28;20670;-64
2022/12/19 04:07:54;;;;;;;7.93;4.93;;;0.10;99.90;;;0.02;nan;101597.06;5001454;28;20892;-64
2022/12/19 04:10:25;;;;;;;10.95;5.05;;;0.10;99.90;;;0.21;nan;101599.38;5030662;28;20709;-65
2022/12/19 04:12:59;;;;;;;11.20;5.32;;;0.20;99.90;;;0.23;nan;101602.75;5032578;28;20246;-64
2022/12/19 04:15:57;;;;;;;4.35;3.05;;;0.20;99.90;;;0.29;nan;101605.22;4996206;28;20670;-64
2022/12/19 04:18:24;;;;;;;5.05;2.80;;;0.30;99.90;;;0.14;nan;101602.88;5009475;28;20932;-64
2022/12/19 04:21:01;;;;;;;3.33;1.65;;;0.30;99.90;;;0.19;nan;101595.13;5015070;28;20209;-64
2022/12/19 04:23:36;;;;;;;20.40;1.88;;;0.30;99.90;;;0.10;nan;101579.84;5014631;28;20589;-64
2022/12/19 04:26:05;;;;;;;5.95;3.05;;;0.20;99.90;;;0.10;nan;101590.13;5015125;28;20212;-64
2022/12/19 04:28:48;;;;;;;8.45;3.33;;;0.20;99.90;;;0.14;nan;101589.19;5009404;28;20614;-64
2022/12/19 04:31:16;;;;;;;6.63;2.15;;;0.20;99.90;;;0.02;nan;101579.97;5024733;28;20219;-64
2022/12/19 04:33:43;;;;;;;0.65;0.65;;;0.30;99.90;;;-0.03;nan;101574.91;5014316;28;20568;-64
2022/12/19 04:36:10;;;;;;;8.02;2.38;;;0.30;99.90;;;-0.01;nan;101562.91;5027967;28;20231;-64
2022/12/19 04:38:38;;;;;;;1.75;1.65;;;0.30;99.90;;;-0.02;nan;101560.31;5014528;28;20210;-64
2022/12/19 04:41:05;;;;;;;4.63;2.05;;;0.20;99.90;;;0.08;nan;101559.34;5032689;28;20207;-62
2022/12/19 04:43:32;;;;;;;2.15;1.60;;;0.20;99.90;;;0.12;nan;101565.28;5031009;28;20208;-63
2022/12/19 04:45:59;;;;;;;3.25;1.77;;;0.20;99.90;;;0.13;nan;101565.25;5032651;28;20591;-63
2022/12/19 04:48:26;;;;;;;4.72;2.88;;;0.30;99.90;;;0.09;nan;101558.47;5030463;28;20233;-63
2022/12/19 04:50:55;;;;;;;1.98;1.73;;;0.30;99.90;;;-0.02;nan;101547.50;5031749;28;20831;-63
2022/12/19 04:53:22;;;;;;;0.88;0.88;;;0.20;99.90;;;0.11;nan;101549.03;5030268;28;20289;-64
2022/12/19 04:55:49;;;;;;;3.42;2.88;;;0.20;99.90;;;-0.03;nan;101538.97;5031115;28;20208;-64
2022/12/19 04:58:16;;;;;;;17.70;2.80;;;0.20;99.90;;;-0.02;nan;101537.22;5030429;28;20202;-62
2022/12/19 05:00:47;;;;;;;4.85;2.13;;;0.20;99.90;;;-0.04;nan;101546.66;5031026;28;20226;-64
2022/12/19 05:03:14;;;;;;;0.75;0.75;;;0.20;99.90;;;0.08;nan;101546.53;5029272;28;20227;-64
2022/12/19 05:05:41;;;;;;;5.68;1.60;;;0.20;99.90;;;0.16;nan;101531.00;5029855;28;20243;-64
2022/12/19 05:08:08;;;;;;;11.40;4.38;;;0.30;99.90;;;-0.02;nan;101532.97;5012360;28;20218;-64
2022/12/19 05:10:36;;;;;;;3.35;2.75;;;0.30;99.90;;;-0.07;nan;101524.50;5028872;28;20207;-64
2022/12/19 05:13:03;;;;;;;2.20;1.00;;;0.30;99.90;;;0.07;nan;101523.44;5031348;28;20710;-64
2022/12/19 05:15:29;;;;;;;4.20;2.60;;;0.30;99.90;;;0.12;nan;101534.47;5031846;28;20744;-64
2022/12/19 05:17:56;;;;;;;2.33;2.13;;;0.30;99.90;;;0.11;nan;101523.34;5031309;28;20288;-64
2022/12/19 05:20:23;;;;;;;7.07;3.45;;;0.40;99.90;;;0.18;nan;101524.97;5031707;28;20393;-62
2022/12/19 05:22:50;;;;;;;4.85;2.20;;;0.40;99.90;;;0.37;nan;101521.25;5030877;28;20225;-64
2022/12/19 05:25:17;;;;;;;6.90;3.75;;;0.50;99.90;;;0.43;nan;101502.31;5031366;28;20207;-64
2022/12/19 05:27:44;;;;;;;1.60;1.27;;;0.60;99.90;;;0.56;nan;101526.91;5031051;28;20236;-64
2022/12/19 05:30:12;;;;;;;0.90;0.90;;;0.70;99.90;;;0.49;nan;101509.94;5030668;28;20799;-63
2022/12/19 05:32:38;;;;;;;1.25;1.25;;;0.70;99.90;;;0.50;nan;101522.75;5029842;28;20235;-65
2022/12/19 05:35:06;;;;;;;0.38;0.38;;;0.70;99.90;;;0.58;nan;101517.47;5029859;28;20214;-61
2022/12/19 05:37:34;;;;;;;4.40;3.78;;;0.70;99.90;;;0.69;nan;101513.00;5031040;28;20229;-64
2022/12/19 05:40:01;;;;;;;2.45;1.23;;;0.80;99.90;;;0.75;nan;101518.03;5029707;28;20257;-65
2022/12/19 05:42:28;;;;;;;3.13;1.90;;;0.90;99.90;;;0.61;nan;101513.16;5029148;28;20542;-63
2022/12/19 05:44:54;;;;;;;2.15;1.42;;;0.90;99.90;;;0.59;nan;101516.59;5031058;28;20208;-65
2022/12/19 05:47:21;;;;;;;5.30;2.30;;;0.90;99.90;;;0.62;nan;101522.53;5031670;28;20353;-64
2022/12/19 05:49:48;;;;;;;4.20;2.63;;;0.80;99.90;;;0.73;nan;101530.03;5031179;28;20591;-64
2022/12/19 05:52:15;;;;;;;2.45;2.25;;;0.90;99.90;;;0.79;nan;101529.94;5031104;28;20284;-63
2022/12/19 05:54:42;;;;;;;1.55;1.15;;;0.90;99.90;;;0.86;nan;101534.09;5030006;28;20220;-63
2022/12/19 05:57:09;;;;;;;7.65;3.42;;;1.00;99.90;;;0.84;nan;101538.41;5030830;28;20221;-64
2022/12/19 05:59:36;;;;;;;1.75;1.20;;;1.00;99.90;;;0.83;nan;101526.47;5030164;28;20284;-64
2022/12/19 06:02:03;;;;;;;0.45;0.45;;;1.00;99.90;;;0.70;nan;101522.41;5031245;28;20276;-63
2022/12/19 06:04:30;;;;;;;3.35;3.08;;;1.00;99.90;;;0.96;nan;101529.66;5031250;28;20203;-64
2022/12/19 06:06:57;;;;;;;6.47;1.80;;;1.00;99.90;;;0.74;nan;101519.75;5030171;28;20253;-64
2022/12/19 06:09:24;;;;;;;1.45;1.23;;;1.00;99.90;;;0.76;nan;101517.16;5030595;28;20205;-64
2022/12/19 06:11:51;;;;;;;4.90;2.13;;;1.00;99.90;;;0.70;nan;101515.53;5029721;28;20243;-64
2022/12/19 06:14:18;;;;;;;1.60;1.40;;;1.00;99.90;;;0.74;nan;101524.06;5030835;28;20216;-63
2022/12/19 06:16:46;;;;;;;3.58;2.58;;;1.00;99.90;;;0.76;nan;101525.72;5029580;28;20221;-63
2022/12/19 06:19:13;;;;;;;2.53;1.83;;;1.00;99.90;;;0.77;nan;101521.41;5030864;28;20212;-63
2022/12/19 06:21:40;;;;;;;3.30;1.85;;;1.00;99.90;;;0.90;nan;101519.47;5030338;28;20221;-64
2022/12/19 06:24:14;;;;;;;5.88;2.72;;;1.00;99.90;;;0.81;nan;101517.09;5030002;28;20205;-64
2022/12/19 06:26:41;;;;;;;5.57;2.90;;;1.00;99.90;;;0.84;nan;101517.84;5012164;28;20258;-63
2022/12/19 06:29:08;;;;;;;2.65;2.45;;;1.00;99.90;;;0.95;nan;101513.38;5028290;28;20213;-63
2022/12/19 06:31:34;;;;;;;1.88;1.77;;;1.10;99.90;;;0.89;nan;101531.50;5030295;28;20238;-61
2022/12/19 06:34:01;;;;;;;6.80;4.30;;;1.10;99.90;;;0.82;nan;101532.47;5029603;28;20204;-63
2022/12/19 06:36:30;;;;;;;1.73;1.63;;;1.10;99.90;;;0.90;nan;101528.03;5029726;28;20266;-63
2022/12/19 06:38:57;;;;;;;4.85;3.10;;;1.10;99.90;;;0.94;nan;101519.38;5029852;28;20583;-63
2022/12/19 06:44:14;;;;;;;11.02;3.80;;;1.10;99.90;;;0.89;nan;101528.91;5014922;28;20205;-63
2022/12/19 06:46:42;;;;;;;3.63;2.05;;;1.10;99.90;;;0.99;nan;101521.88;5029493;28;20250;-64
2022/12/19 06:49:10;;;;;;;5.65;1.63;;;1.10;99.90;;;1.02;nan;101527.81;5027298;28;20208;-63
2022/12/19 06:51:37;;;;;;;12.68;4.90;;;1.20;99.90;;;0.86;nan;101526.38;5027449;28;20261;-63
2022/12/19 06:54:04;;;;;;;6.18;3.35;;;1.10;99.90;;;1.02;nan;101527.81;5030421;28;20621;-63
2022/12/19 06:56:40;;;;;;;2.92;2.15;;;1.10;99.90;;;1.10;nan;101515.66;5027153;28;20213;-64
2022/12/19 06:59:11;;;;;;;0.70;0.70;;;1.20;99.90;;;1.07;nan;101520.84;5038793;28;20239;-64
2022/12/19 07:01:57;;;;;;;5.97;3.40;;;1.20;99.90;;;1.15;nan;101520.72;5029184;28;20225;-63
2022/12/19 07:04:29;;;;;;;8.43;4.38;;;1.20;99.90;;;1.29;nan;101527.28;5029363;28;20597;-63
2022/12/19 07:06:57;;;;;;;6.18;3.08;;;1.30;99.90;;;1.19;nan;101528.31;5011690;28;20677;-63
2022/12/19 07:09:26;;;;;;;6.28;4.10;;;1.30;99.90;;;1.37;nan;101530.53;5029044;28;20697;-63
2022/12/19 07:11:53;;;;;;;9.55;5.28;;;1.30;99.90;;;1.44;nan;101537.25;5030080;28;20229;-64
2022/12/19 07:14:20;;;;;;;8.13;4.47;;;1.40;99.90;;;1.41;nan;101521.88;5012991;28;20210;-63
2022/12/19 07:16:48;;;;;;;5.93;2.67;;;1.40;99.90;;;1.33;nan;101525.47;5033557;28;20234;-63
2022/12/19 07:19:15;;;;;;;10.35;4.35;;;1.40;99.90;;;1.17;nan;101522.34;5030684;28;20653;-63
2022/12/19 07:21:43;;;;;;;6.13;2.75;;;1.40;99.90;;;1.32;nan;101524.63;5016584;28;20272;-64
2022/12/19 07:24:13;;;;;;;2.03;1.15;;;1.40;99.90;;;1.46;nan;101524.38;5032716;28;20216;-64
2022/12/19 07:26:42;;;;;;;7.90;3.78;;;1.50;99.90;;;1.33;nan;101518.63;5016101;28;20205;-60
2022/12/19 07:29:09;;;;;;;3.22;2.67;;;1.50;99.90;;;1.32;nan;101527.19;5031127;28;20198;-64
2022/12/19 07:31:37;;;;;;;6.72;3.78;;;1.50;99.90;;;1.29;nan;101519.56;5030288;28;20226;-64
2022/12/19 07:34:04;;;;;;;8.40;3.83;;;1.50;99.90;;;1.48;nan;101523.47;5024789;28;20251;-64
2022/12/19 07:36:31;;;;;;;12.48;6.38;;;1.50;99.90;;;1.51;nan;101528.53;5018588;28;20206;-63
2022/12/19 07:38:57;;;;;;;12.25;6.45;;;1.50;99.90;;;1.58;nan;101528.41;5031094;28;20259;-60
2022/12/19 07:41:24;;;;;;;12.52;6.22;;;1.50;99.90;;;1.73;nan;101521.19;5031518;28;20236;-64
2022/12/19 07:43:51;;;;;;;10.52;6.00;;;1.60;99.90;;;1.80;nan;101524.50;5029903;28;20331;-64
2022/12/19 07:46:18;;;;;;;8.55;5.60;;;1.70;99.90;;;1.72;nan;101526.38;5033557;28;20206;-63
2022/12/19 07:48:45;;;;;;;15.70;7.53;;;1.70;99.90;;;1.75;nan;101527.16;5032301;28;20223;-64
2022/12/19 07:51:12;;;;;;;18.65;8.38;;;1.70;99.90;;;1.88;nan;101528.59;5032748;28;20626;-64
2022/12/19 07:53:39;;;;;;;19.42;8.70;;;1.80;99.90;;;1.81;nan;101531.34;5031624;28;20417;-64
2022/12/19 07:56:07;;;;;;;18.92;8.80;;;1.80;99.90;;;1.84;nan;101531.25;5030075;28;20646;-60
2022/12/19 07:58:33;;;;;;;19.10;8.55;;;1.80;99.90;;;1.92;nan;101534.50;5032356;28;20226;-64
2022/12/19 08:01:01;;;;;;;10.15;5.90;;;1.80;99.90;;;1.88;nan;101535.47;5032505;28;20713;-66
2022/12/19 08:03:29;;;;;;;17.27;8.55;;;1.80;99.90;;;2.01;nan;101542.88;5032417;28;20214;-63
2022/12/19 08:06:02;;;;;;;11.02;6.90;;;1.90;99.90;;;2.08;nan;101533.28;5032601;28;20210;-63
2022/12/19 08:08:30;;;;;;;12.48;6.60;;;1.90;99.90;;;2.10;nan;101528.97;5033008;28;20586;-63
2022/12/19 08:11:28;;;;;;;10.35;5.57;;;1.90;99.90;;;2.01;nan;101529.16;5030623;28;20659;-63
2022/12/19 08:13:57;;;;;;;16.30;8.05;;;2.00;99.90;;;2.09;nan;101538.41;5019723;28;20214;-64
2022/12/19 08:16:26;;;;;;;13.65;7.35;;;2.00;99.90;;;2.11;nan;101536.63;5033896;28;20210;-64
2022/12/19 08:18:54;;;;;;;16.45;7.30;;;2.00;99.90;;;2.16;nan;101534.81;5032493;28;20242;-63
2022/12/19 08:21:22;;;;;;;19.02;7.95;;;2.00;99.90;;;2.21;nan;101543.28;5028849;28;20210;-65
2022/12/19 08:23:49;;;;;;;18.58;8.90;;;2.10;99.90;;;2.18;nan;101542.50;5032580;28;20667;-64
2022/12/19 08:26:23;;;;;;;19.17;6.57;;;2.10;99.90;;;2.30;nan;101552.50;5031399;28;20221;-65
2022/12/19 08:28:53;;;;;;;13.25;6.00;;;2.10;99.90;;;2.27;nan;101542.28;5032798;28;20272;-64
2022/12/19 08:31:23;;;;;;;11.00;6.65;;;2.20;99.90;;;2.23;nan;101530.38;5029498;28;20210;-63
2022/12/19 08:33:52;;;;;;;7.10;3.58;;;2.10;99.90;;;2.15;nan;101527.13;5015204;28;20233;-64
2022/12/19 08:36:20;;;;;;;7.47;3.90;;;2.20;99.90;;;2.14;nan;101526.28;5031454;28;20651;-64
2022/12/19 08:38:48;;;;;;;5.60;3.78;;;2.10;99.90;;;2.00;nan;101524.91;5012759;28;20277;-65
2022/12/19 08:41:16;;;;;;;8.52;4.35;;;2.10;99.90;;;2.03;nan;101511.94;5029400;28;20280;-64
2022/12/19 08:43:52;;;;;;;8.52;4.45;;;2.10;99.90;;;1.94;nan;101514.75;5033107;28;20270;-64
2022/12/19 08:46:20;;;;;;;10.50;6.22;;;2.00;99.90;;;2.14;nan;101512.56;5012463;28;20191;-67
2022/12/19 08:48:47;;;;;;;11.20;6.10;;;2.10;99.90;;;2.20;nan;101502.97;5027304;28;20581;-63
2022/12/19 08:51:16;;;;;;;9.25;4.47;;;2.10;99.90;;;2.09;nan;101504.94;5031323;28;20214;-63
2022/12/19 08:53:45;;;;;;;11.35;5.05;;;2.10;99.90;;;1.97;nan;101512.09;5031375;28;20671;-64
2022/12/19 08:56:20;;;;;;;9.82;5.40;;;2.00;99.90;;;2.13;nan;101513.44;5012253;28;20214;-64
2022/12/19 08:58:50;;;;;;;15.10;7.43;;;2.00;99.90;;;2.21;nan;101519.25;5028407;28;20233;-64
2022/12/19 09:01:19;;;;;;;18.50;8.40;;;2.10;99.90;;;2.23;nan;101507.19;5031548;28;20796;-64
2022/12/19 09:03:46;;;;;;;19.98;8.90;;;2.10;99.90;;;2.32;nan;101509.56;5050455;28;20276;-63
2022/12/19 09:06:33;;;;;;;3.20;1.45;;;2.20;99.90;;;2.13;nan;101498.00;5035868;28;20194;-63
2022/12/19 09:09:03;;;;;;;6.70;4.28;;;2.20;99.90;;;2.19;nan;101496.09;5030499;28;20708;-63
2022/12/19 09:11:30;;;;;;;3.78;3.33;;;2.20;99.90;;;2.03;nan;101499.09;5030421;28;20276;-62
2022/12/19 09:13:58;;;;;;;9.18;4.50;;;2.10;99.90;;;2.14;nan;101495.38;5029675;28;20217;-62
2022/12/19 09:16:27;;;;;;;2.22;2.13;;;2.10;99.90;;;2.22;nan;101487.47;5031243;28;20206;-64
2022/12/19 09:18:57;;;;;;;7.93;3.70;;;2.20;99.90;;;2.05;nan;101489.59;5030540;28;20230;-64
2022/12/19 09:21:30;;;;;;;19.00;7.93;;;2.20;99.90;;;2.25;nan;101495.97;5012750;28;20710;-65
2022/12/19 09:23:59;;;;;;;15.27;6.80;;;2.20;99.90;;;2.38;nan;101502.50;5030474;28;20273;-63
2022/12/19 09:26:33;;;;;;;16.23;7.47;;;2.20;99.90;;;2.43;nan;101497.25;5030066;28;20198;-63
2022/12/19 09:29:00;;;;;;;20.85;10.02;;;2.30;99.90;;;2.52;nan;101501.31;5030089;28;20214;-63
2022/12/19 09:31:27;;;;;;;15.20;7.30;;;2.40;99.90;;;2.59;nan;101502.88;5029618;28;20230;-63
2022/12/19 09:33:54;;;;;;;22.10;9.70;;;2.40;99.90;;;2.64;nan;101507.00;5030612;28;20214;-66
2022/12/19 09:36:23;;;;;;;19.73;8.82;;;2.50;99.90;;;2.70;nan;101501.72;5029884;28;20203;-65
2022/12/19 09:38:56;;;;;;;10.82;6.95;;;2.50;99.90;;;2.80;nan;101499.72;5030319;28;20226;-63
2022/12/19 09:42:27;;;;;;;23.42;10.55;;;2.60;99.90;;;2.94;nan;101495.91;5029506;28;20226;-65
2022/12/19 09:45:07;;;;;;;9.15;6.20;;;2.60;99.90;;;3.01;nan;101483.69;5028783;28;20259;-66
2022/12/19 09:47:41;;;;;;;17.08;8.30;;;2.80;99.90;;;3.05;nan;101485.28;5030148;28;20210;-65
2022/12/19 09:50:50;;;;;;;11.65;5.97;;;2.90;99.90;;;3.23;nan;101489.09;5028428;28;20206;-65
2022/12/19 09:53:29;;;;;;;14.27;3.87;;;2.90;99.90;;;3.19;nan;101490.94;4974153;28;1054399;-65
2022/12/19 09:55:58;;;;;;;7.20;4.03;;;3.00;99.90;;;2.94;nan;101495.03;5008371;28;20203;-65
2022/12/19 09:58:42;;;;;;;6.00;4.57;;;2.90;99.90;;;3.03;nan;101485.34;5004815;28;20612;-65
2022/12/19 10:01:22;;;;;;;0.68;0.68;;;2.90;99.90;;;3.08;nan;101493.81;5023657;28;20199;-65
2022/12/19 10:04:04;;;;;;;9.60;4.43;;;3.00;99.90;;;2.93;nan;101490.78;5031298;28;20206;-65
2022/12/19 10:06:31;;;;;;;4.03;2.17;;;2.90;99.90;;;2.89;nan;101487.47;5012578;28;20198;-65
2022/12/19 10:09:23;;;;;;;7.53;4.20;;;2.90;99.90;;;2.90;nan;101498.59;5030662;28;20260;-66
2022/12/19 10:12:51;;;;;;;8.50;4.68;;;2.90;99.90;;;2.67;nan;101482.91;5016008;28;20300;-64
2022/12/19 10:15:50;;;;;;;2.05;1.05;;;2.80;99.90;;;2.71;nan;101462.16;5029410;28;20198;-65
2022/12/19 10:18:40;;;;;;;9.18;2.25;;;2.80;99.90;;;2.54;nan;101456.59;5014166;28;20230;-65
2022/12/19 10:21:33;;;;;;;6.70;1.52;;;2.80;99.90;;;2.65;nan;101453.75;5012310;28;20206;-64
2022/12/19 10:24:48;;;;;;;1.65;1.55;;;2.70;99.90;;;2.67;nan;101462.28;5030687;28;20237;-65
2022/12/19 10:28:05;;;;;;;11.40;4.63;;;2.70;99.90;;;2.80;nan;101461.94;5020231;28;20213;-65
2022/12/19 10:30:40;;;;;;;7.20;4.47;;;2.80;99.90;;;2.83;nan;101451.50;4991408;28;20210;-65
2022/12/19 10:33:35;;;;;;;10.25;5.72;;;2.80;99.90;;;2.92;nan;101460.72;5012841;28;20255;-65
2022/12/19 10:36:09;;;;;;;8.88;4.93;;;2.90;99.90;;;2.99;nan;101465.69;5012657;28;20275;-65
2022/12/19 10:38:46;;;;;;;15.20;7.35;;;2.90;99.90;;;2.96;nan;101458.03;5011037;28;20229;-65
2022/12/19 10:41:21;;;;;;;17.90;8.70;;;2.90;99.90;;;3.13;nan;101458.41;5002023;28;20195;-66
2022/12/19 10:44:08;;;;;;;9.95;5.55;;;2.90;99.90;;;3.19;nan;101454.81;4993068;28;20234;-64
2022/12/19 10:46:48;;;;;;;10.43;7.05;;;3.00;99.90;;;3.20;nan;101446.19;5027192;28;20207;-66
2022/12/19 10:49:26;;;;;;;5.68;4.13;;;3.10;99.90;;;3.10;nan;101437.88;5029491;28;20623;-66
2022/12/19 10:52:03;;;;;;;6.18;2.97;;;3.00;99.90;;;3.10;nan;101424.13;5029645;28;20238;-66
2022/12/19 10:54:36;;;;;;;6.22;3.22;;;3.00;99.90;;;3.31;nan;101427.81;4997241;28;20199;-65
2022/12/19 10:57:21;;;;;;;6.82;5.38;;;3.10;99.90;;;3.46;nan;101424.78;5025671;28;20773;-64
2022/12/19 11:00:15;;;;;;;15.35;7.03;;;3.20;99.90;;;3.68;nan;101433.56;5025229;28;20214;-65
2022/12/19 11:02:46;;;;;;;10.07;5.22;;;3.30;99.90;;;3.76;nan;101432.44;5026415;28;20221;-65
2022/12/19 11:05:23;;;;;;;10.80;6.38;;;3.40;99.90;;;3.93;nan;101419.00;5029310;28;20214;-66
2022/12/19 11:08:16;;;;;;;10.68;6.13;;;3.50;99.90;;;3.62;nan;101416.53;5030801;28;20256;-65